Terminal Aerodrome Forecast
Issued by NWS

Home | Current Version | Previous Version | Text Only | Print | Product List | Glossary Off
Versions: 1 2 3 4 5 6 7 8 9 10 11 12 13 14 15 16 17 18 19

000
FTUS42 KMHX 201700
TAFPGV
TAF
KPGV 201720Z 2018/2118 04003KT P6SM SCT040 BKN050
     FM202000 14004KT P6SM VCTS BKN030CB
     FM210100 10003KT P6SM BKN040
     FM210800 11003KT 4SM BR SKC
     FM211300 09004KT P6SM SCT030
      AMD LTD TO CLD VIS AND WIND=

USA.gov is the U.S. government's official web portal to all federal, state and local government web resources and services.